Time;durP1;ratioP1;P1;durP2;ratioP2;P2;SDS_P1;SDS_P2;PMS_P1;PMS_P2;Temp;Humidity;BMP_temperature;BMP_pressure;BME280_temperature;BME280_humidity;BME280_pressure;Samples;Min_cycle;Max_cycle;Signal;HPM_P1;HPM_P2
2022/03/04 02:18:18;;;;;;;55.80;5.28;;;;;;;;;;4998158;28;20057;-83
2022/03/04 02:20:48;;;;;;;19.67;6.00;;;;;;;;;;5011305;28;20137;-83
2022/03/04 03:29:58;;;;;;;13.10;4.45;;;;;;;;;;5012621;28;20045;-83
2022/03/04 03:32:26;;;;;;;15.80;5.55;;;;;;;;;;4982009;28;20058;-83
2022/03/04 04:31:17;;;;;;;13.98;5.72;;;;;;;;;;5001717;28;20423;-83
2022/03/04 04:33:44;;;;;;;26.10;6.43;;;;;;;;;;5014609;28;20062;-84
2022/03/04 05:29:26;;;;;;;13.15;4.88;;;;;;;;;;5014689;28;20042;-89
2022/03/04 05:31:54;;;;;;;17.45;5.65;;;;;;;;;;5015884;28;20128;-83
2022/03/04 05:34:22;;;;;;;13.27;5.68;;;;;;;;;;5008648;28;20428;-83
2022/03/04 05:46:14;;;;;;;13.30;4.85;;;;;;;;;;5016183;28;20041;-83
2022/03/04 05:48:43;;;;;;;11.35;4.85;;;;;;;;;;5007524;28;20380;-83
2022/03/04 05:51:10;;;;;;;38.47;4.82;;;;;;;;;;5013401;28;20050;-83
2022/03/04 05:53:38;;;;;;;24.30;5.32;;;;;;;;;;5019984;28;20064;-84
2022/03/04 05:56:08;;;;;;;37.78;5.30;;;;;;;;;;4999487;28;20053;-83
2022/03/04 05:58:37;;;;;;;29.77;5.07;;;;;;;;;;5017311;28;20056;-83
2022/03/04 06:01:08;;;;;;;17.88;5.63;;;;;;;;;;4998416;28;20081;-83
2022/03/04 06:03:36;;;;;;;19.92;5.95;;;;;;;;;;5006591;28;20045;-81
2022/03/04 06:06:05;;;;;;;19.35;5.80;;;;;;;;;;5013582;28;20081;-83
2022/03/04 06:08:36;;;;;;;19.95;5.28;;;;;;;;;;5018010;28;20052;-82
2022/03/04 06:11:08;;;;;;;23.75;5.60;;;;;;;;;;5011943;28;20078;-82
2022/03/04 06:13:38;;;;;;;13.35;5.30;;;;;;;;;;5012787;28;20052;-81
2022/03/04 06:16:06;;;;;;;11.98;4.53;;;;;;;;;;5011736;28;20053;-81
2022/03/04 06:18:34;;;;;;;16.45;5.30;;;;;;;;;;5013637;28;20391;-81
2022/03/04 06:21:02;;;;;;;17.58;3.85;;;;;;;;;;5016965;28;20062;-82
2022/03/04 06:23:30;;;;;;;29.67;4.40;;;;;;;;;;5012156;28;20050;-81
2022/03/04 06:25:58;;;;;;;24.42;5.20;;;;;;;;;;5009545;28;20072;-81
2022/03/04 06:28:27;;;;;;;17.33;6.88;;;;;;;;;;5018774;28;20038;-81
2022/03/04 06:30:54;;;;;;;11.05;5.05;;;;;;;;;;5006550;28;20509;-82
2022/03/04 06:33:35;;;;;;;28.73;5.60;;;;;;;;;;5011750;28;20041;-85
2022/03/04 06:36:04;;;;;;;19.88;6.38;;;;;;;;;;5002891;28;20072;-81
2022/03/04 06:38:34;;;;;;;15.60;4.50;;;;;;;;;;5015986;28;20129;-82
2022/03/04 06:41:03;;;;;;;19.50;4.75;;;;;;;;;;5010844;28;20061;-81
2022/03/04 06:43:30;;;;;;;15.13;5.60;;;;;;;;;;5015996;28;20075;-81
2022/03/04 06:45:58;;;;;;;22.90;7.45;;;;;;;;;;5015016;28;20053;-81
2022/03/04 06:48:27;;;;;;;16.50;5.57;;;;;;;;;;5011571;28;20037;-81
2022/03/04 06:50:55;;;;;;;15.73;4.32;;;;;;;;;;5015619;28;20427;-81
2022/03/04 06:53:23;;;;;;;11.93;4.50;;;;;;;;;;5002301;28;20062;-81
2022/03/04 06:55:50;;;;;;;17.50;4.95;;;;;;;;;;4995418;28;20058;-81
2022/03/04 06:58:18;;;;;;;13.55;4.53;;;;;;;;;;5013377;28;20469;-81
2022/03/04 07:00:47;;;;;;;13.75;3.92;;;;;;;;;;5009562;28;20216;-81
2022/03/04 07:03:14;;;;;;;18.20;5.93;;;;;;;;;;5010659;28;20045;-81
2022/03/04 07:05:43;;;;;;;17.17;4.35;;;;;;;;;;5013873;28;20045;-81
2022/03/04 07:08:11;;;;;;;13.85;5.13;;;;;;;;;;5013526;28;20076;-81
2022/03/04 07:10:45;;;;;;;21.90;5.00;;;;;;;;;;5009490;28;20816;-81
2022/03/04 07:13:15;;;;;;;25.70;5.75;;;;;;;;;;5017240;28;20921;-81
2022/03/04 07:15:45;;;;;;;8.32;3.30;;;;;;;;;;5010976;28;20119;-81
2022/03/04 07:18:14;;;;;;;13.98;3.97;;;;;;;;;;5008430;28;20048;-81
2022/03/04 07:20:42;;;;;;;18.23;4.07;;;;;;;;;;5012187;28;20057;-81
2022/03/04 07:23:10;;;;;;;14.40;4.97;;;;;;;;;;5009375;28;20076;-81
2022/03/04 07:25:38;;;;;;;9.88;3.83;;;;;;;;;;5009517;28;20124;-81
2022/03/04 07:28:07;;;;;;;13.57;3.75;;;;;;;;;;5009433;28;21328;-81
2022/03/04 07:30:35;;;;;;;12.80;4.03;;;;;;;;;;5012009;28;22275;-80
2022/03/04 07:33:03;;;;;;;23.85;4.60;;;;;;;;;;5005238;28;20051;-80
2022/03/04 07:35:30;;;;;;;17.15;4.90;;;;;;;;;;4988349;28;20050;-80
2022/03/04 07:37:58;;;;;;;9.77;4.10;;;;;;;;;;5008389;28;20049;-80
2022/03/04 07:40:26;;;;;;;13.82;4.40;;;;;;;;;;5001010;28;21775;-81
2022/03/04 07:42:54;;;;;;;10.13;3.65;;;;;;;;;;4991685;28;20054;-82
2022/03/04 07:45:22;;;;;;;15.60;4.63;;;;;;;;;;4991055;28;20080;-80
2022/03/04 07:47:51;;;;;;;10.73;4.20;;;;;;;;;;5009287;28;20362;-83
2022/03/04 07:50:18;;;;;;;11.50;4.57;;;;;;;;;;4973870;28;20148;-83
2022/03/04 07:52:48;;;;;;;12.07;4.05;;;;;;;;;;4998088;28;20077;-83
2022/03/04 07:55:16;;;;;;;17.83;4.68;;;;;;;;;;4994958;28;20053;-84
2022/03/04 07:57:44;;;;;;;13.63;4.50;;;;;;;;;;5008286;28;20050;-83
2022/03/04 08:00:15;;;;;;;52.88;17.13;;;;;;;;;;4972262;28;20062;-83
2022/03/04 08:02:44;;;;;;;9.93;4.07;;;;;;;;;;4996981;28;20069;-83
2022/03/04 08:05:12;;;;;;;6.60;2.72;;;;;;;;;;5009662;28;20142;-83
2022/03/04 08:07:40;;;;;;;8.80;3.53;;;;;;;;;;5013234;28;20349;-83
2022/03/04 08:10:10;;;;;;;10.10;3.75;;;;;;;;;;5011341;28;20073;-84
2022/03/04 08:12:39;;;;;;;7.43;3.25;;;;;;;;;;5007867;28;20133;-83
2022/03/04 08:15:10;;;;;;;8.32;3.33;;;;;;;;;;5003979;28;20064;-83
2022/03/04 08:17:40;;;;;;;9.65;3.92;;;;;;;;;;5007029;28;20053;-84
2022/03/04 08:20:09;;;;;;;12.25;3.97;;;;;;;;;;5011009;28;20057;-83
2022/03/04 08:22:38;;;;;;;8.82;3.65;;;;;;;;;;4998362;28;20044;-83
2022/03/04 08:25:07;;;;;;;9.20;3.85;;;;;;;;;;5005796;28;20416;-84
2022/03/04 08:27:40;;;;;;;9.73;3.83;;;;;;;;;;4996878;28;20576;-84
2022/03/04 08:30:10;;;;;;;9.32;2.85;;;;;;;;;;5004938;28;20611;-84
2022/03/04 08:32:41;;;;;;;11.48;3.80;;;;;;;;;;5004164;28;20050;-84
2022/03/04 08:35:22;;;;;;;8.77;3.10;;;;;;;;;;4995366;28;20160;-84
2022/03/04 08:37:52;;;;;;;10.20;3.83;;;;;;;;;;5001359;28;20137;-84
2022/03/04 08:40:24;;;;;;;11.98;3.50;;;;;;;;;;4987502;28;20112;-84
2022/03/04 08:42:52;;;;;;;15.18;5.93;;;;;;;;;;4993805;28;20049;-83
2022/03/04 08:45:20;;;;;;;12.10;4.80;;;;;;;;;;5011957;28;20062;-84
2022/03/04 08:47:48;;;;;;;9.23;3.50;;;;;;;;;;5004145;28;20049;-84
2022/03/04 08:50:17;;;;;;;12.10;3.97;;;;;;;;;;5006972;28;20140;-84
2022/03/04 08:52:44;;;;;;;11.95;4.35;;;;;;;;;;4979335;28;20050;-84
2022/03/04 08:55:17;;;;;;;12.93;4.35;;;;;;;;;;4989297;28;20053;-84
2022/03/04 08:57:46;;;;;;;14.90;4.40;;;;;;;;;;5009904;28;20045;-83
2022/03/04 09:00:16;;;;;;;8.15;3.50;;;;;;;;;;5007666;28;20054;-81
2022/03/04 09:02:44;;;;;;;13.45;3.67;;;;;;;;;;5003979;28;20088;-81
2022/03/04 09:05:12;;;;;;;13.63;4.45;;;;;;;;;;4990125;28;20046;-81
2022/03/04 09:07:40;;;;;;;9.93;4.47;;;;;;;;;;4989665;28;20053;-81
2022/03/04 09:10:09;;;;;;;10.98;4.47;;;;;;;;;;5000344;28;20058;-81
2022/03/04 09:12:36;;;;;;;9.40;4.07;;;;;;;;;;5003295;28;20428;-81
2022/03/04 09:15:05;;;;;;;12.40;5.57;;;;;;;;;;5003406;28;20057;-81
2022/03/04 09:17:32;;;;;;;10.32;4.50;;;;;;;;;;5004556;28;20116;-81
2022/03/04 09:20:00;;;;;;;13.30;4.00;;;;;;;;;;5001403;28;20171;-81
2022/03/04 09:22:28;;;;;;;13.40;5.07;;;;;;;;;;5001032;28;20054;-81
2022/03/04 09:24:56;;;;;;;14.27;4.97;;;;;;;;;;5002650;28;20063;-81
2022/03/04 09:27:24;;;;;;;11.10;4.47;;;;;;;;;;5018979;28;20437;-81
2022/03/04 09:29:52;;;;;;;15.70;5.70;;;;;;;;;;5009330;28;20891;-81
2022/03/04 09:32:20;;;;;;;12.40;4.97;;;;;;;;;;4992045;28;20092;-81
2022/03/04 09:34:48;;;;;;;16.65;5.40;;;;;;;;;;5013886;28;20533;-81
2022/03/04 09:37:16;;;;;;;18.02;5.90;;;;;;;;;;5004382;28;20073;-81
2022/03/04 09:39:44;;;;;;;22.73;7.38;;;;;;;;;;5003179;28;20190;-82
2022/03/04 09:42:14;;;;;;;20.85;6.55;;;;;;;;;;5006078;28;20054;-82
2022/03/04 09:44:42;;;;;;;22.42;6.40;;;;;;;;;;5009587;28;20053;-82
2022/03/04 09:47:10;;;;;;;17.80;6.43;;;;;;;;;;5006339;28;20054;-82
2022/03/04 09:49:38;;;;;;;17.55;5.75;;;;;;;;;;5005418;28;20177;-82
2022/03/04 09:52:06;;;;;;;20.98;7.20;;;;;;;;;;5007872;28;21347;-82
2022/03/04 09:54:34;;;;;;;18.48;6.38;;;;;;;;;;5007274;28;20054;-82
2022/03/04 09:57:03;;;;;;;16.52;6.18;;;;;;;;;;4998393;28;20056;-82
2022/03/04 09:59:30;;;;;;;20.63;6.38;;;;;;;;;;5010294;28;20052;-82
2022/03/04 10:01:58;;;;;;;16.30;6.45;;;;;;;;;;5004068;28;20041;-82
2022/03/04 10:04:27;;;;;;;15.75;5.60;;;;;;;;;;4991003;28;20065;-82
2022/03/04 10:06:56;;;;;;;10.50;4.45;;;;;;;;;;4993209;28;20106;-82
2022/03/04 10:09:47;;;;;;;18.35;5.60;;;;;;;;;;5007285;28;20054;-82
2022/03/04 10:12:19;;;;;;;10.57;4.45;;;;;;;;;;5013133;28;20435;-82
2022/03/04 10:15:00;;;;;;;13.23;4.53;;;;;;;;;;5001492;28;20111;-82
2022/03/04 10:17:35;;;;;;;11.98;4.45;;;;;;;;;;5010158;28;20073;-82
2022/03/04 10:20:12;;;;;;;12.88;4.80;;;;;;;;;;5005145;28;20054;-82
2022/03/04 10:22:45;;;;;;;9.77;4.13;;;;;;;;;;4997906;28;20054;-82
2022/03/04 10:25:24;;;;;;;10.68;4.13;;;;;;;;;;4999458;28;20058;-82
2022/03/04 10:27:52;;;;;;;10.32;4.32;;;;;;;;;;5003417;28;20978;-82
2022/03/04 10:30:32;;;;;;;11.70;4.55;;;;;;;;;;4998238;28;20057;-82
2022/03/04 10:33:08;;;;;;;13.23;4.97;;;;;;;;;;4981953;28;20465;-82
2022/03/04 10:35:37;;;;;;;10.40;4.07;;;;;;;;;;5006728;28;20160;-82
2022/03/04 10:38:04;;;;;;;10.27;3.63;;;;;;;;;;4983709;28;20056;-82
2022/03/04 10:40:42;;;;;;;13.75;5.07;;;;;;;;;;5009283;28;20064;-82
2022/03/04 10:43:11;;;;;;;12.50;4.93;;;;;;;;;;5001052;28;20054;-82
2022/03/04 10:45:42;;;;;;;11.88;4.75;;;;;;;;;;4992311;28;20045;-81
2022/03/04 10:48:20;;;;;;;19.48;4.97;;;;;;;;;;5010888;28;20106;-82
2022/03/04 10:50:56;;;;;;;9.05;4.05;;;;;;;;;;5008826;28;20108;-82
2022/03/04 10:53:29;;;;;;;10.25;4.18;;;;;;;;;;4998811;28;20088;-82
2022/03/04 10:56:00;;;;;;;8.18;3.30;;;;;;;;;;5008850;28;20049;-82
2022/03/04 10:58:41;;;;;;;7.88;3.53;;;;;;;;;;5005992;28;20076;-83
2022/03/04 11:01:12;;;;;;;9.43;3.97;;;;;;;;;;5006421;28;20077;-82
2022/03/04 11:03:41;;;;;;;9.25;3.83;;;;;;;;;;5007649;28;20070;-83
2022/03/04 11:06:13;;;;;;;9.07;4.03;;;;;;;;;;5001134;28;20120;-82
2022/03/04 11:08:42;;;;;;;7.82;3.47;;;;;;;;;;5006934;28;20476;-83
2022/03/04 11:11:11;;;;;;;9.13;2.83;;;;;;;;;;5007721;28;20054;-82
2022/03/04 11:13:38;;;;;;;7.28;3.45;;;;;;;;;;5007370;28;20075;-82
2022/03/04 11:16:07;;;;;;;10.13;3.72;;;;;;;;;;5004167;28;20089;-82
2022/03/04 11:18:37;;;;;;;6.22;2.80;;;;;;;;;;5010050;28;20045;-82
2022/03/04 11:21:04;;;;;;;7.97;3.83;;;;;;;;;;5009816;28;20075;-82
2022/03/04 11:23:37;;;;;;;6.72;3.13;;;;;;;;;;5009493;28;20053;-82
2022/03/04 11:26:25;;;;;;;8.43;3.60;;;;;;;;;;5007799;28;20535;-83
2022/03/04 11:28:54;;;;;;;7.40;3.63;;;;;;;;;;5010180;28;20058;-83
2022/03/04 11:31:25;;;;;;;7.95;2.78;;;;;;;;;;5010490;28;20180;-83
2022/03/04 11:33:55;;;;;;;10.98;4.22;;;;;;;;;;5009744;28;20050;-83
2022/03/04 11:36:25;;;;;;;10.15;3.40;;;;;;;;;;5010668;28;20096;-83
2022/03/04 11:39:07;;;;;;;8.48;2.92;;;;;;;;;;5010781;28;20108;-83
2022/03/04 11:41:38;;;;;;;6.72;2.75;;;;;;;;;;5002136;28;20428;-83
2022/03/04 11:44:25;;;;;;;7.13;3.03;;;;;;;;;;5005608;28;20151;-83
2022/03/04 11:46:55;;;;;;;;;;;;;;;;;;4982292;28;20065;-83
2022/03/04 11:49:31;;;;;;;7.80;3.42;;;;;;;;;;5004300;28;21328;-83
2022/03/04 11:52:07;;;;;;;14.35;5.78;;;;;;;;;;5007191;28;20053;-83
2022/03/04 11:54:41;;;;;;;7.00;3.13;;;;;;;;;;5006480;28;20060;-83
2022/03/04 11:57:21;;;;;;;10.20;3.53;;;;;;;;;;5008651;28;20568;-83
2022/03/04 11:59:55;;;;;;;9.02;3.50;;;;;;;;;;5005004;28;20041;-83
2022/03/04 12:02:36;;;;;;;8.13;3.08;;;;;;;;;;5011690;28;20064;-82
2022/03/04 12:05:23;;;;;;;8.57;4.10;;;;;;;;;;5006063;28;20050;-82
2022/03/04 12:07:56;;;;;;;7.63;3.25;;;;;;;;;;4999771;28;20049;-82
2022/03/04 12:10:27;;;;;;;6.72;2.63;;;;;;;;;;5008849;28;20155;-83
2022/03/04 12:13:10;;;;;;;8.27;3.13;;;;;;;;;;4998129;28;20460;-82
2022/03/04 12:15:44;;;;;;;5.60;2.97;;;;;;;;;;5005371;28;20054;-83
2022/03/04 12:18:28;;;;;;;7.75;3.30;;;;;;;;;;5003228;28;20050;-83
2022/03/04 12:20:56;;;;;;;7.13;3.20;;;;;;;;;;5002007;28;20056;-82
2022/03/04 12:23:45;;;;;;;3.70;2.05;;;;;;;;;;5008557;28;20080;-82
2022/03/04 12:26:35;;;;;;;6.18;2.80;;;;;;;;;;5000128;28;20131;-82
2022/03/04 12:29:11;;;;;;;10.13;2.70;;;;;;;;;;5000097;28;20516;-82
2022/03/04 12:31:40;;;;;;;5.88;2.30;;;;;;;;;;5005708;28;20045;-82
2022/03/04 12:34:37;;;;;;;9.30;2.70;;;;;;;;;;5004980;28;20067;-83
2022/03/04 12:37:08;;;;;;;6.68;2.50;;;;;;;;;;5003849;28;20392;-83
2022/03/04 12:39:37;;;;;;;8.50;3.15;;;;;;;;;;5006523;28;20120;-82
2022/03/04 12:42:07;;;;;;;7.55;2.85;;;;;;;;;;5008930;28;20120;-82
2022/03/04 12:44:37;;;;;;;8.77;1.80;;;;;;;;;;4981789;28;20053;-82
2022/03/04 12:47:06;;;;;;;8.02;2.72;;;;;;;;;;4977695;28;20057;-83
2022/03/04 12:49:41;;;;;;;7.15;2.70;;;;;;;;;;5007375;28;20053;-82
2022/03/04 12:52:10;;;;;;;4.63;2.10;;;;;;;;;;5005734;28;20355;-82
2022/03/04 12:54:38;;;;;;;8.00;2.63;;;;;;;;;;4999512;28;20053;-82
2022/03/04 12:57:08;;;;;;;5.45;1.95;;;;;;;;;;5007731;28;20046;-82
2022/03/04 12:59:48;;;;;;;7.10;2.78;;;;;;;;;;5000542;28;20104;-82
2022/03/04 13:02:16;;;;;;;7.68;2.53;;;;;;;;;;5000810;28;20058;-83
2022/03/04 13:05:00;;;;;;;7.00;3.00;;;;;;;;;;5005920;28;20050;-83
2022/03/04 13:07:43;;;;;;;4.25;2.00;;;;;;;;;;5000210;28;20128;-84
2022/03/04 13:10:24;;;;;;;6.18;2.60;;;;;;;;;;4984993;28;20168;-83
2022/03/04 13:12:58;;;;;;;6.07;2.13;;;;;;;;;;5007496;28;20532;-84
2022/03/04 13:15:26;;;;;;;6.15;2.95;;;;;;;;;;5001230;28;20505;-82
2022/03/04 13:17:54;;;;;;;6.10;2.55;;;;;;;;;;5002617;28;20050;-82
2022/03/04 13:20:22;;;;;;;7.72;2.80;;;;;;;;;;5006327;28;20127;-82
2022/03/04 13:23:07;;;;;;;7.07;2.50;;;;;;;;;;4991693;28;20045;-82
2022/03/04 13:25:35;;;;;;;6.70;2.80;;;;;;;;;;4985167;28;20062;-82
2022/03/04 13:28:04;;;;;;;6.32;3.25;;;;;;;;;;5005958;28;20060;-82
2022/03/04 13:30:48;;;;;;;6.47;1.60;;;;;;;;;;4998813;28;20073;-82
2022/03/04 13:33:16;;;;;;;5.28;2.47;;;;;;;;;;5000189;28;20215;-82
2022/03/04 13:35:50;;;;;;;5.80;2.50;;;;;;;;;;4998817;28;20136;-82
2022/03/04 13:38:22;;;;;;;7.93;2.72;;;;;;;;;;5002577;28;20317;-82
2022/03/04 13:40:50;;;;;;;8.20;3.70;;;;;;;;;;5001435;28;20469;-82
2022/03/04 13:43:32;;;;;;;7.70;3.03;;;;;;;;;;5001588;28;20073;-82
2022/03/04 13:46:11;;;;;;;9.65;4.00;;;;;;;;;;5013129;28;20119;-82
2022/03/04 13:48:38;;;;;;;8.98;3.60;;;;;;;;;;5004277;28;20794;-82
2022/03/04 13:51:12;;;;;;;11.95;2.80;;;;;;;;;;5010425;28;20069;-82
2022/03/04 13:53:57;;;;;;;8.90;4.20;;;;;;;;;;5006032;28;20092;-82
2022/03/04 13:56:40;;;;;;;5.72;2.50;;;;;;;;;;5004958;28;20051;-82
2022/03/04 13:59:08;;;;;;;10.00;3.20;;;;;;;;;;5010166;28;20050;-82
2022/03/04 14:01:36;;;;;;;7.22;2.65;;;;;;;;;;5002756;28;20117;-82
2022/03/04 14:04:08;;;;;;;7.35;3.10;;;;;;;;;;4983556;28;21193;-82
2022/03/04 14:06:36;;;;;;;8.15;2.75;;;;;;;;;;5003355;28;20058;-82
2022/03/04 14:09:12;;;;;;;7.10;3.10;;;;;;;;;;4992750;28;20050;-82
2022/03/04 14:11:40;;;;;;;9.75;3.72;;;;;;;;;;4993107;28;20064;-82
2022/03/04 14:14:15;;;;;;;4.70;2.50;;;;;;;;;;4998957;28;20134;-82
2022/03/04 14:16:42;;;;;;;19.55;5.82;;;;;;;;;;4970170;28;20141;-82
2022/03/04 14:19:10;;;;;;;8.13;2.95;;;;;;;;;;4995720;28;20129;-82
2022/03/04 14:21:38;;;;;;;7.07;1.90;;;;;;;;;;5001889;28;20053;-82
2022/03/04 14:24:06;;;;;;;4.00;1.70;;;;;;;;;;4985387;28;20144;-82
2022/03/04 14:26:34;;;;;;;3.08;1.50;;;;;;;;;;5010389;28;20346;-82
2022/03/04 14:29:22;;;;;;;5.82;1.50;;;;;;;;;;5011810;28;20046;-82
2022/03/04 14:31:51;;;;;;;5.50;1.30;;;;;;;;;;4989139;28;20073;-82
2022/03/04 14:34:18;;;;;;;3.03;1.10;;;;;;;;;;5013272;28;20049;-82
2022/03/04 14:36:46;;;;;;;3.15;1.23;;;;;;;;;;5009850;28;20057;-82
2022/03/04 14:39:34;;;;;;;3.70;1.52;;;;;;;;;;5007788;28;20045;-82
2022/03/04 14:42:02;;;;;;;1.98;1.02;;;;;;;;;;4999648;28;20050;-82
2022/03/04 14:44:30;;;;;;;3.75;1.40;;;;;;;;;;5006225;28;20089;-82
2022/03/04 14:46:59;;;;;;;2.70;1.08;;;;;;;;;;5010062;28;20762;-82
2022/03/04 14:49:28;;;;;;;1.42;1.00;;;;;;;;;;5009431;28;20050;-82
2022/03/04 14:51:56;;;;;;;3.75;1.17;;;;;;;;;;5005954;28;20417;-82
2022/03/04 14:54:24;;;;;;;1.63;0.90;;;;;;;;;;5010249;28;20127;-82
2022/03/04 14:57:11;;;;;;;2.88;1.38;;;;;;;;;;5010445;28;20053;-82
2022/03/04 14:59:39;;;;;;;3.47;1.00;;;;;;;;;;4997317;28;20061;-82
2022/03/04 15:02:07;;;;;;;2.38;0.95;;;;;;;;;;5001838;28;20049;-82
2022/03/04 15:04:34;;;;;;;3.30;1.25;;;;;;;;;;4985951;28;20085;-82
2022/03/04 15:07:08;;;;;;;3.25;1.20;;;;;;;;;;5010400;28;20057;-82
2022/03/04 15:09:39;;;;;;;4.18;1.10;;;;;;;;;;4985596;28;20045;-82
2022/03/04 15:12:28;;;;;;;1.80;0.90;;;;;;;;;;4996470;28;20058;-82
2022/03/04 15:14:56;;;;;;;3.30;1.27;;;;;;;;;;4988664;28;20509;-82
2022/03/04 15:17:24;;;;;;;3.20;0.95;;;;;;;;;;5004972;28;20054;-82
2022/03/04 15:19:52;;;;;;;4.05;1.10;;;;;;;;;;4999185;28;20077;-82
2022/03/04 15:22:20;;;;;;;6.13;1.10;;;;;;;;;;5007918;28;20136;-82
2022/03/04 15:24:48;;;;;;;3.10;1.13;;;;;;;;;;5010084;28;20050;-82
2022/03/04 15:27:16;;;;;;;3.25;1.00;;;;;;;;;;5006874;28;20627;-82
2022/03/04 15:29:44;;;;;;;3.15;0.85;;;;;;;;;;5006184;28;20049;-82
2022/03/04 15:32:29;;;;;;;1.85;0.88;;;;;;;;;;5003863;28;20144;-82
2022/03/04 15:34:56;;;;;;;4.10;1.10;;;;;;;;;;4996556;28;20511;-82
2022/03/04 15:37:24;;;;;;;5.88;1.45;;;;;;;;;;5002961;28;20054;-82
2022/03/04 15:39:52;;;;;;;4.15;1.42;;;;;;;;;;5005875;28;20050;-82
2022/03/04 15:42:20;;;;;;;7.00;1.50;;;;;;;;;;5012119;28;20054;-82
2022/03/04 15:44:55;;;;;;;6.18;1.60;;;;;;;;;;4987537;28;20171;-82
2022/03/04 15:47:23;;;;;;;6.22;1.42;;;;;;;;;;5007323;28;20056;-82
2022/03/04 15:49:50;;;;;;;3.03;1.20;;;;;;;;;;5010784;28;20046;-82
2022/03/04 15:52:18;;;;;;;4.60;1.45;;;;;;;;;;5007141;28;20096;-82
2022/03/04 15:54:47;;;;;;;4.65;1.40;;;;;;;;;;5009485;28;20715;-82
2022/03/04 15:57:14;;;;;;;2.38;1.05;;;;;;;;;;5003840;28;20049;-82
2022/03/04 15:59:42;;;;;;;3.75;1.08;;;;;;;;;;5006307;28;20041;-82
2022/03/04 16:02:10;;;;;;;3.20;0.85;;;;;;;;;;5002925;28;20088;-82
2022/03/04 16:04:38;;;;;;;2.92;0.88;;;;;;;;;;4991555;28;20053;-83
2022/03/04 16:07:07;;;;;;;2.00;0.70;;;;;;;;;;5005218;28;20170;-82
2022/03/04 16:09:34;;;;;;;2.53;0.95;;;;;;;;;;5005888;28;20050;-82
2022/03/04 16:12:02;;;;;;;4.80;1.52;;;;;;;;;;5010785;28;20135;-82
2022/03/04 16:14:50;;;;;;;2.78;1.00;;;;;;;;;;5010601;28;20054;-82
2022/03/04 16:17:21;;;;;;;4.15;1.30;;;;;;;;;;4986538;28;20049;-82
2022/03/04 16:19:48;;;;;;;4.32;0.95;;;;;;;;;;5009698;28;20386;-82
2022/03/04 16:22:16;;;;;;;2.50;1.00;;;;;;;;;;4992216;28;20041;-82
2022/03/04 16:24:44;;;;;;;4.95;1.10;;;;;;;;;;5006981;28;20058;-82
2022/03/04 16:27:12;;;;;;;1.17;0.60;;;;;;;;;;5012085;28;20129;-82
2022/03/04 16:29:40;;;;;;;5.15;1.13;;;;;;;;;;5003832;28;20061;-82
2022/03/04 16:32:08;;;;;;;2.65;1.10;;;;;;;;;;4996424;28;20158;-82
2022/03/04 16:34:38;;;;;;;3.15;1.15;;;;;;;;;;5009184;28;20057;-82
2022/03/04 16:37:06;;;;;;;3.72;1.10;;;;;;;;;;4984032;28;20054;-83
2022/03/04 16:39:34;;;;;;;3.50;1.30;;;;;;;;;;5007485;28;20057;-82
2022/03/04 16:42:03;;;;;;;5.20;1.25;;;;;;;;;;5010220;28;20131;-84
2022/03/04 16:44:44;;;;;;;2.35;1.25;;;;;;;;;;4988128;28;20517;-82
2022/03/04 16:47:14;;;;;;;2.95;1.38;;;;;;;;;;4993955;28;20053;-83
2022/03/04 16:49:57;;;;;;;5.18;1.58;;;;;;;;;;5003980;28;20068;-84
2022/03/04 16:53:00;;;;;;;4.57;1.33;;;;;;;;;;5005863;28;20146;-84
2022/03/04 16:56:46;;;;;;;3.47;1.35;;;;;;;;;;5012604;28;20116;-84
2022/03/04 17:01:08;;;;;;;6.95;1.73;;;;;;;;;;4903526;29;20054;-85
2022/03/04 17:05:20;;;;;;;2.97;1.58;;;;;;;;;;4865689;29;20056;-85
2022/03/04 17:09:59;;;;;;;3.55;1.50;;;;;;;;;;4829807;29;20041;-85
2022/03/04 17:13:50;;;;;;;4.80;1.48;;;;;;;;;;4757364;30;20058;-84
2022/03/04 17:16:34;;;;;;;3.20;1.77;;;;;;;;;;4754212;30;20150;-84
2022/03/04 17:19:16;;;;;;;4.00;1.60;;;;;;;;;;4741893;30;22097;-84
2022/03/04 17:26:00;;;;;;;4.30;1.30;;;;;;;;;;4754946;30;20092;-83
2022/03/04 17:28:33;;;;;;;3.35;1.58;;;;;;;;;;4736653;30;20070;-82
2022/03/04 17:31:01;;;;;;;7.00;1.88;;;;;;;;;;4775384;29;20125;-82
2022/03/04 17:33:28;;;;;;;8.43;1.90;;;;;;;;;;4791974;29;20519;-82
2022/03/04 17:35:56;;;;;;;9.50;2.15;;;;;;;;;;4801307;29;20082;-83
2022/03/04 17:38:26;;;;;;;6.50;1.95;;;;;;;;;;4834589;29;20070;-82
2022/03/04 17:40:54;;;;;;;7.13;1.70;;;;;;;;;;4828811;29;20153;-83
2022/03/04 17:43:26;;;;;;;4.22;1.90;;;;;;;;;;4866203;29;20080;-84
2022/03/04 17:46:09;;;;;;;5.07;2.30;;;;;;;;;;4900314;29;20039;-84
2022/03/04 17:48:53;;;;;;;3.95;1.92;;;;;;;;;;4891702;29;20056;-85
2022/03/04 17:51:34;;;;;;;4.10;1.60;;;;;;;;;;4903164;29;20060;-85
2022/03/04 17:54:16;;;;;;;5.07;1.73;;;;;;;;;;4893854;29;20051;-84
2022/03/04 17:56:58;;;;;;;11.40;4.03;;;;;;;;;;4930827;28;20304;-83
2022/03/04 17:59:41;;;;;;;11.68;3.20;;;;;;;;;;4951694;28;20576;-84
2022/03/04 18:02:11;;;;;;;6.28;2.17;;;;;;;;;;4946967;28;20059;-85
2022/03/04 18:04:48;;;;;;;10.32;3.58;;;;;;;;;;4935968;28;20070;-85
2022/03/04 18:07:30;;;;;;;4.57;2.35;;;;;;;;;;4949511;28;20364;-85
2022/03/04 18:09:58;;;;;;;7.45;2.15;;;;;;;;;;4922038;28;20055;-85
2022/03/04 18:12:26;;;;;;;3.88;1.95;;;;;;;;;;4949544;28;20059;-85
2022/03/04 18:14:54;;;;;;;5.95;2.47;;;;;;;;;;4962801;28;20514;-85
2022/03/04 18:17:36;;;;;;;5.90;2.55;;;;;;;;;;4996860;28;20064;-85
2022/03/04 18:20:18;;;;;;;10.52;4.63;;;;;;;;;;4975840;28;20054;-84
2022/03/04 18:23:01;;;;;;;4.70;2.17;;;;;;;;;;5004853;28;20397;-84
2022/03/04 18:25:43;;;;;;;5.00;1.83;;;;;;;;;;4988524;28;20053;-83
2022/03/04 18:28:13;;;;;;;6.50;2.00;;;;;;;;;;5015947;28;20203;-85
2022/03/04 18:30:42;;;;;;;6.25;2.40;;;;;;;;;;5008780;28;20050;-85
2022/03/04 18:33:10;;;;;;;6.32;1.90;;;;;;;;;;5014271;28;20529;-85
2022/03/04 18:35:38;;;;;;;8.25;3.58;;;;;;;;;;5008921;28;20061;-85
2022/03/04 18:40:52;;;;;;;10.52;2.83;;;;;;;;;;4994754;28;20046;-85
2022/03/04 18:43:20;;;;;;;6.90;2.35;;;;;;;;;;5010492;28;20069;-86
2022/03/04 18:46:02;;;;;;;9.80;4.20;;;;;;;;;;5014160;28;20099;-86
2022/03/04 18:48:46;;;;;;;9.27;2.22;;;;;;;;;;4999797;28;20087;-84
2022/03/04 18:51:23;;;;;;;6.60;2.63;;;;;;;;;;5012739;28;20140;-85
2022/03/04 18:53:53;;;;;;;8.35;3.50;;;;;;;;;;5016982;28;20056;-85
2022/03/04 18:56:54;;;;;;;8.38;3.55;;;;;;;;;;5008340;28;20140;-85
2022/03/04 19:06:30;;;;;;;10.32;3.45;;;;;;;;;;4742807;30;20496;-83
2022/03/04 19:15:31;;;;;;;6.97;3.38;;;;;;;;;;4673696;30;20061;-84
2022/03/04 19:18:32;;;;;;;10.77;4.40;;;;;;;;;;4686468;30;20053;-85
2022/03/04 19:45:36;;;;;;;9.43;3.03;;;;;;;;;;4929637;28;20063;-86
2022/03/04 19:48:18;;;;;;;6.47;2.80;;;;;;;;;;4907106;29;20463;-84
2022/03/04 19:51:00;;;;;;;6.50;2.78;;;;;;;;;;4940860;28;20058;-84
2022/03/04 19:53:28;;;;;;;6.93;2.65;;;;;;;;;;5001856;28;20199;-84
2022/03/04 19:56:13;;;;;;;8.65;3.67;;;;;;;;;;4984102;28;20080;-84
2022/03/04 19:58:55;;;;;;;8.32;3.28;;;;;;;;;;4995325;28;20054;-84
2022/03/04 20:01:36;;;;;;;14.77;4.40;;;;;;;;;;4993238;28;20060;-84
2022/03/04 20:04:19;;;;;;;7.65;3.00;;;;;;;;;;5006917;28;20068;-84
2022/03/04 20:07:01;;;;;;;9.00;3.83;;;;;;;;;;5009597;28;20134;-83
2022/03/04 20:09:42;;;;;;;5.28;3.28;;;;;;;;;;4971870;28;20076;-83
2022/03/04 20:12:27;;;;;;;9.32;3.95;;;;;;;;;;5018332;28;20080;-83
2022/03/04 20:14:57;;;;;;;7.70;3.17;;;;;;;;;;5001680;28;20038;-84
2022/03/04 20:17:24;;;;;;;5.97;3.15;;;;;;;;;;4981905;28;20069;-83
2022/03/04 20:19:52;;;;;;;5.97;3.25;;;;;;;;;;5010054;28;20061;-84
2022/03/04 20:22:20;;;;;;;5.53;2.92;;;;;;;;;;5003548;28;20365;-84
2022/03/04 20:24:54;;;;;;;6.65;2.92;;;;;;;;;;5012451;28;20053;-84
2022/03/04 20:27:22;;;;;;;7.53;3.42;;;;;;;;;;4989802;28;20107;-84
2022/03/04 20:29:51;;;;;;;10.05;4.05;;;;;;;;;;4993505;28;20472;-83
2022/03/04 20:32:18;;;;;;;10.43;3.88;;;;;;;;;;5004951;28;20513;-84
2022/03/04 20:34:46;;;;;;;7.53;3.45;;;;;;;;;;4999992;28;20049;-84
2022/03/04 20:37:14;;;;;;;7.80;3.53;;;;;;;;;;5010927;28;20129;-84
2022/03/04 20:39:42;;;;;;;13.60;4.40;;;;;;;;;;5008597;28;20041;-84
2022/03/04 20:42:10;;;;;;;6.50;3.28;;;;;;;;;;5010604;28;20052;-84
2022/03/04 20:44:38;;;;;;;6.32;3.10;;;;;;;;;;5014875;28;20152;-84
2022/03/04 20:47:06;;;;;;;8.82;3.40;;;;;;;;;;5008410;28;20128;-83
2022/03/04 20:49:34;;;;;;;7.38;3.40;;;;;;;;;;4994148;28;20495;-83
2022/03/04 20:52:02;;;;;;;5.70;2.45;;;;;;;;;;5012295;28;20057;-83
2022/03/04 20:54:30;;;;;;;9.45;3.17;;;;;;;;;;5012024;28;20057;-84
2022/03/04 20:56:59;;;;;;;7.47;3.05;;;;;;;;;;5010229;28;20052;-84
2022/03/04 20:59:28;;;;;;;9.02;3.30;;;;;;;;;;5008809;28;20576;-85
2022/03/04 21:01:56;;;;;;;9.25;3.25;;;;;;;;;;4985949;28;20482;-84
2022/03/04 21:04:24;;;;;;;7.10;2.80;;;;;;;;;;5010350;28;20093;-84
2022/03/04 21:06:52;;;;;;;5.82;2.35;;;;;;;;;;5010372;28;20067;-84
2022/03/04 21:09:20;;;;;;;7.75;2.60;;;;;;;;;;4994512;28;20152;-85
2022/03/04 21:11:48;;;;;;;11.18;2.60;;;;;;;;;;5015741;28;20090;-84
2022/03/04 21:14:19;;;;;;;5.22;2.38;;;;;;;;;;4997256;28;20053;-85
2022/03/04 21:16:46;;;;;;;9.63;3.22;;;;;;;;;;5011595;28;20104;-85
2022/03/04 21:19:16;;;;;;;8.38;3.60;;;;;;;;;;5012451;28;20042;-85
2022/03/04 21:21:58;;;;;;;9.48;2.30;;;;;;;;;;4988698;28;20093;-85